Hlavní strana
METAR-TAF:

METAR-TAF

Letiště :

Bukurešť, Rumunsko

Letiště Bukurešť Henriho Coandy

zeměpisná šířka: 44-33N, zeměpisná délka: 026-06E, výška: 95 m

Aktuální stav počasí

Zpráva byla vytvořena před 24 minutami, v 09:00 UTC
vítr z různých směrů 2 kt
Teplota -2°C
Vlhkost vzduchu 69%
Tlak 1037 hPa
Viditelnost 10 km a více
Žádná oblačnost pod 1500 m, nevyskytují se cumulonimby.

METAR: LROP 240900Z VRB02KT CAVOK M02/M07 Q1037 R08R/19//95 R08L/19//95 NOSIG

Čas: 11:24 (09:24 UTC)

Předpověď počasí

Zpráva byla vytvořena před 4 hodinami a 24 minutami, v 05:00 UTC
Předpověď platná od 24 v 06 UTC do 25 v 06 UTC
vítr z různých směrů 4 kt
Viditelnost 10 km a více
Žádná oblačnost pod 1500 m, nevyskytují se cumulonimby.
Dočasný
od 25 v 01 UTC do 25 v 06 UTC
Viditelnost: 3000 m
kouřmo

TAF: LROP 240500Z 2406/2506 VRB04KT CAVOK TEMPO 2501/2506 3000 BR

Stav a předpovědi počasí z více než 4 000 letišť (zprávy METAR a TAF).

Červené a žluté tečky na mapě představují dostupné meteorologické stanice.

Když kurzor umístíte na tečku, zobrazí se název stanice.

Pak kliknutím zobrazíte stav a předpověď počasí.

Chcete-li změnit mapu, kliknutím na zelené tlačítko se znaménkem +mapu přiblížíte, kliknutím na zelené tlačítko se znaménkem – mapu oddálíte a kliknutím na zelené šipky přejdete na sousední mapy.


METAR-TAF: